sensor_id;sensor_type;location;lat;lon;timestamp;P1;durP1;ratioP1;P2;durP2;ratioP2
79122;SDS011;68526;44.600;26.032;2023-04-28T00:00:05;8.93;;;7.30;;
79122;SDS011;68526;44.600;26.032;2023-04-28T00:00:23;9.70;;;7.70;;
79122;SDS011;68526;44.600;26.032;2023-04-28T00:00:38;11.13;;;7.95;;
79122;SDS011;68526;44.600;26.032;2023-04-28T00:00:54;11.98;;;7.75;;
79122;SDS011;68526;44.600;26.032;2023-04-28T00:01:10;11.63;;;7.80;;
79122;SDS011;68526;44.600;26.032;2023-04-28T00:01:26;11.00;;;7.90;;
79122;SDS011;68526;44.600;26.032;2023-04-28T00:01:43;10.65;;;8.00;;
79122;SDS011;68526;44.600;26.032;2023-04-28T00:01:59;10.23;;;7.68;;
79122;SDS011;68526;44.600;26.032;2023-04-28T00:02:15;11.07;;;7.90;;
79122;SDS011;68526;44.600;26.032;2023-04-28T00:02:31;11.00;;;7.97;;
79122;SDS011;68526;44.600;26.032;2023-04-28T00:02:48;11.88;;;8.02;;
79122;SDS011;68526;44.600;26.032;2023-04-28T00:03:04;12.40;;;7.85;;
79122;SDS011;68526;44.600;26.032;2023-04-28T00:03:20;11.55;;;7.53;;
79122;SDS011;68526;44.600;26.032;2023-04-28T00:03:36;10.70;;;8.00;;
79122;SDS011;68526;44.600;26.032;2023-04-28T00:03:52;10.85;;;8.45;;
79122;SDS011;68526;44.600;26.032;2023-04-28T00:04:09;10.73;;;8.07;;
79122;SDS011;68526;44.600;26.032;2023-04-28T00:04:25;11.07;;;8.07;;
79122;SDS011;68526;44.600;26.032;2023-04-28T00:04:42;10.63;;;8.05;;
79122;SDS011;68526;44.600;26.032;2023-04-28T00:04:58;10.50;;;8.23;;
79122;SDS011;68526;44.600;26.032;2023-04-28T00:05:14;12.55;;;8.20;;
79122;SDS011;68526;44.600;26.032;2023-04-28T00:05:30;12.85;;;8.13;;
79122;SDS011;68526;44.600;26.032;2023-04-28T00:05:46;11.93;;;8.70;;
79122;SDS011;68526;44.600;26.032;2023-04-28T00:06:03;12.15;;;8.88;;
79122;SDS011;68526;44.600;26.032;2023-04-28T00:06:20;12.80;;;8.50;;
79122;SDS011;68526;44.600;26.032;2023-04-28T00:06:35;11.77;;;8.57;;
79122;SDS011;68526;44.600;26.032;2023-04-28T00:06:51;11.87;;;9.00;;
79122;SDS011;68526;44.600;26.032;2023-04-28T00:07:08;12.13;;;9.20;;
79122;SDS011;68526;44.600;26.032;2023-04-28T00:07:24;11.27;;;8.38;;
79122;SDS011;68526;44.600;26.032;2023-04-28T00:07:40;11.18;;;8.32;;
79122;SDS011;68526;44.600;26.032;2023-04-28T00:07:56;10.70;;;8.50;;
79122;SDS011;68526;44.600;26.032;2023-04-28T00:08:12;10.13;;;8.43;;
79122;SDS011;68526;44.600;26.032;2023-04-28T00:08:28;10.73;;;8.30;;
79122;SDS011;68526;44.600;26.032;2023-04-28T00:08:45;12.30;;;8.07;;
79122;SDS011;68526;44.600;26.032;2023-04-28T00:09:00;11.18;;;7.90;;
79122;SDS011;68526;44.600;26.032;2023-04-28T00:09:16;11.40;;;7.80;;
79122;SDS011;68526;44.600;26.032;2023-04-28T00:09:32;12.97;;;8.37;;
79122;SDS011;68526;44.600;26.032;2023-04-28T00:09:48;11.75;;;8.23;;
79122;SDS011;68526;44.600;26.032;2023-04-28T00:10:04;10.27;;;8.05;;
79122;SDS011;68526;44.600;26.032;2023-04-28T00:10:22;10.27;;;8.13;;
79122;SDS011;68526;44.600;26.032;2023-04-28T00:10:37;10.77;;;7.82;;
79122;SDS011;68526;44.600;26.032;2023-04-28T00:10:53;10.87;;;7.70;;
79122;SDS011;68526;44.600;26.032;2023-04-28T00:11:09;10.30;;;7.68;;
79122;SDS011;68526;44.600;26.032;2023-04-28T00:11:25;10.05;;;7.65;;
79122;SDS011;68526;44.600;26.032;2023-04-28T00:11:43;10.95;;;8.13;;
79122;SDS011;68526;44.600;26.032;2023-04-28T00:11:58;12.40;;;8.23;;
79122;SDS011;68526;44.600;26.032;2023-04-28T00:12:16;11.88;;;8.07;;
79122;SDS011;68526;44.600;26.032;2023-04-28T00:12:32;10.98;;;7.95;;
79122;SDS011;68526;44.600;26.032;2023-04-28T00:12:48;11.13;;;7.60;;
79122;SDS011;68526;44.600;26.032;2023-04-28T00:13:04;12.57;;;7.73;;
79122;SDS011;68526;44.600;26.032;2023-04-28T00:13:20;11.88;;;8.00;;
79122;SDS011;68526;44.600;26.032;2023-04-28T00:13:36;11.52;;;7.95;;
79122;SDS011;68526;44.600;26.032;2023-04-28T00:13:52;12.63;;;8.18;;
79122;SDS011;68526;44.600;26.032;2023-04-28T00:14:08;12.20;;;8.40;;
79122;SDS011;68526;44.600;26.032;2023-04-28T00:14:24;11.10;;;8.30;;
79122;SDS011;68526;44.600;26.032;2023-04-28T00:14:40;10.90;;;8.23;;
79122;SDS011;68526;44.600;26.032;2023-04-28T00:14:56;11.40;;;7.88;;
79122;SDS011;68526;44.600;26.032;2023-04-28T00:15:12;12.13;;;7.90;;
79122;SDS011;68526;44.600;26.032;2023-04-28T00:15:27;13.13;;;7.95;;
79122;SDS011;68526;44.600;26.032;2023-04-28T00:15:44;12.38;;;7.63;;
79122;SDS011;68526;44.600;26.032;2023-04-28T00:16:00;13.25;;;7.88;;
79122;SDS011;68526;44.600;26.032;2023-04-28T00:16:16;11.77;;;8.02;;
79122;SDS011;68526;44.600;26.032;2023-04-28T00:16:32;10.80;;;8.00;;
79122;SDS011;68526;44.600;26.032;2023-04-28T00:16:48;11.00;;;7.80;;
79122;SDS011;68526;44.600;26.032;2023-04-28T00:17:12;10.43;;;7.60;;
79122;SDS011;68526;44.600;26.032;2023-04-28T00:17:29;11.77;;;7.90;;
79122;SDS011;68526;44.600;26.032;2023-04-28T00:17:45;12.10;;;8.13;;
79122;SDS011;68526;44.600;26.032;2023-04-28T00:18:01;10.95;;;8.05;;
79122;SDS011;68526;44.600;26.032;2023-04-28T00:18:16;11.35;;;8.02;;
79122;SDS011;68526;44.600;26.032;2023-04-28T00:18:32;11.90;;;8.43;;
79122;SDS011;68526;44.600;26.032;2023-04-28T00:18:49;11.25;;;8.48;;
79122;SDS011;68526;44.600;26.032;2023-04-28T00:19:06;10.65;;;8.00;;
79122;SDS011;68526;44.600;26.032;2023-04-28T00:19:22;9.77;;;7.72;;
79122;SDS011;68526;44.600;26.032;2023-04-28T00:19:37;10.38;;;7.55;;
79122;SDS011;68526;44.600;26.032;2023-04-28T00:19:55;9.40;;;7.47;;
79122;SDS011;68526;44.600;26.032;2023-04-28T00:20:11;10.43;;;7.80;;
79122;SDS011;68526;44.600;26.032;2023-04-28T00:20:28;11.10;;;7.80;;
79122;SDS011;68526;44.600;26.032;2023-04-28T00:20:43;10.47;;;7.63;;
79122;SDS011;68526;44.600;26.032;2023-04-28T00:20:59;10.60;;;7.72;;
79122;SDS011;68526;44.600;26.032;2023-04-28T00:21:16;11.75;;;7.65;;
79122;SDS011;68526;44.600;26.032;2023-04-28T00:21:32;10.50;;;7.60;;
79122;SDS011;68526;44.600;26.032;2023-04-28T00:21:49;10.65;;;7.70;;
79122;SDS011;68526;44.600;26.032;2023-04-28T00:22:04;12.38;;;7.93;;
79122;SDS011;68526;44.600;26.032;2023-04-28T00:22:20;11.60;;;8.27;;
79122;SDS011;68526;44.600;26.032;2023-04-28T00:22:36;11.57;;;8.30;;
79122;SDS011;68526;44.600;26.032;2023-04-28T00:22:52;11.57;;;8.07;;
79122;SDS011;68526;44.600;26.032;2023-04-28T00:23:08;11.27;;;7.97;;
79122;SDS011;68526;44.600;26.032;2023-04-28T00:23:25;13.13;;;7.90;;
79122;SDS011;68526;44.600;26.032;2023-04-28T00:23:41;14.45;;;8.07;;
79122;SDS011;68526;44.600;26.032;2023-04-28T00:23:57;11.20;;;7.95;;
79122;SDS011;68526;44.600;26.032;2023-04-28T00:24:12;10.13;;;7.80;;
79122;SDS011;68526;44.600;26.032;2023-04-28T00:24:28;11.00;;;7.97;;
79122;SDS011;68526;44.600;26.032;2023-04-28T00:24:44;12.25;;;8.20;;
79122;SDS011;68526;44.600;26.032;2023-04-28T00:25:01;11.18;;;7.70;;
79122;SDS011;68526;44.600;26.032;2023-04-28T00:25:17;10.48;;;7.50;;
79122;SDS011;68526;44.600;26.032;2023-04-28T00:25:33;11.50;;;7.90;;
79122;SDS011;68526;44.600;26.032;2023-04-28T00:25:49;11.57;;;7.80;;
79122;SDS011;68526;44.600;26.032;2023-04-28T00:26:06;10.80;;;7.68;;
79122;SDS011;68526;44.600;26.032;2023-04-28T00:26:21;9.90;;;7.88;;
79122;SDS011;68526;44.600;26.032;2023-04-28T00:26:38;11.60;;;8.23;;
79122;SDS011;68526;44.600;26.032;2023-04-28T00:26:54;10.43;;;7.97;;
79122;SDS011;68526;44.600;26.032;2023-04-28T00:27:11;8.30;;;7.47;;
79122;SDS011;68526;44.600;26.032;2023-04-28T00:27:27;9.77;;;7.70;;
79122;SDS011;68526;44.600;26.032;2023-04-28T00:27:43;10.90;;;8.00;;
79122;SDS011;68526;44.600;26.032;2023-04-28T00:27:59;10.10;;;7.70;;
79122;SDS011;68526;44.600;26.032;2023-04-28T00:28:15;10.77;;;7.65;;
79122;SDS011;68526;44.600;26.032;2023-04-28T00:28:32;12.05;;;8.00;;
79122;SDS011;68526;44.600;26.032;2023-04-28T00:28:48;11.38;;;7.90;;
79122;SDS011;68526;44.600;26.032;2023-04-28T00:29:04;11.55;;;7.85;;
79122;SDS011;68526;44.600;26.032;2023-04-28T00:29:20;11.15;;;7.57;;
79122;SDS011;68526;44.600;26.032;2023-04-28T00:29:36;9.65;;;7.60;;
79122;SDS011;68526;44.600;26.032;2023-04-28T00:29:52;10.10;;;7.83;;
79122;SDS011;68526;44.600;26.032;2023-04-28T00:30:09;11.10;;;7.60;;
79122;SDS011;68526;44.600;26.032;2023-04-28T00:30:26;11.27;;;7.60;;
79122;SDS011;68526;44.600;26.032;2023-04-28T00:30:41;10.93;;;7.55;;
79122;SDS011;68526;44.600;26.032;2023-04-28T00:30:57;10.07;;;7.60;;
79122;SDS011;68526;44.600;26.032;2023-04-28T00:31:13;10.20;;;7.32;;
79122;SDS011;68526;44.600;26.032;2023-04-28T00:31:30;11.70;;;7.50;;
79122;SDS011;68526;44.600;26.032;2023-04-28T00:31:47;10.77;;;7.60;;
79122;SDS011;68526;44.600;26.032;2023-04-28T00:32:02;10.45;;;7.45;;
79122;SDS011;68526;44.600;26.032;2023-04-28T00:32:18;11.85;;;7.82;;
79122;SDS011;68526;44.600;26.032;2023-04-28T00:32:34;11.13;;;8.07;;
79122;SDS011;68526;44.600;26.032;2023-04-28T00:32:51;11.63;;;8.23;;
79122;SDS011;68526;44.600;26.032;2023-04-28T00:33:07;10.93;;;7.72;;
79122;SDS011;68526;44.600;26.032;2023-04-28T00:33:22;10.63;;;7.85;;
79122;SDS011;68526;44.600;26.032;2023-04-28T00:33:39;10.57;;;8.05;;
79122;SDS011;68526;44.600;26.032;2023-04-28T00:33:55;8.93;;;7.63;;
79122;SDS011;68526;44.600;26.032;2023-04-28T00:34:11;8.65;;;7.30;;
79122;SDS011;68526;44.600;26.032;2023-04-28T00:34:31;9.33;;;7.30;;
79122;SDS011;68526;44.600;26.032;2023-04-28T00:34:47;10.82;;;7.55;;
79122;SDS011;68526;44.600;26.032;2023-04-28T00:35:06;9.93;;;7.68;;
79122;SDS011;68526;44.600;26.032;2023-04-28T00:35:22;11.00;;;7.85;;
79122;SDS011;68526;44.600;26.032;2023-04-28T00:35:38;10.82;;;7.45;;
79122;SDS011;68526;44.600;26.032;2023-04-28T00:35:57;9.80;;;7.13;;
79122;SDS011;68526;44.600;26.032;2023-04-28T00:36:13;9.05;;;6.80;;
79122;SDS011;68526;44.600;26.032;2023-04-28T00:36:30;8.20;;;6.95;;
79122;SDS011;68526;44.600;26.032;2023-04-28T00:36:47;9.38;;;7.15;;
79122;SDS011;68526;44.600;26.032;2023-04-28T00:37:02;10.95;;;7.57;;
79122;SDS011;68526;44.600;26.032;2023-04-28T00:37:18;12.40;;;7.68;;
79122;SDS011;68526;44.600;26.032;2023-04-28T00:37:35;11.25;;;7.60;;
79122;SDS011;68526;44.600;26.032;2023-04-28T00:37:51;10.60;;;7.60;;
79122;SDS011;68526;44.600;26.032;2023-04-28T00:38:08;12.75;;;7.50;;
79122;SDS011;68526;44.600;26.032;2023-04-28T00:38:24;11.88;;;7.60;;
79122;SDS011;68526;44.600;26.032;2023-04-28T00:38:39;9.63;;;7.87;;
79122;SDS011;68526;44.600;26.032;2023-04-28T00:38:55;10.10;;;8.15;;
79122;SDS011;68526;44.600;26.032;2023-04-28T00:39:11;11.13;;;8.52;;
79122;SDS011;68526;44.600;26.032;2023-04-28T00:39:27;10.65;;;8.00;;
79122;SDS011;68526;44.600;26.032;2023-04-28T00:39:44;9.67;;;7.90;;
79122;SDS011;68526;44.600;26.032;2023-04-28T00:40:01;10.90;;;8.25;;
79122;SDS011;68526;44.600;26.032;2023-04-28T00:40:16;10.60;;;7.85;;
79122;SDS011;68526;44.600;26.032;2023-04-28T00:40:32;10.18;;;7.90;;
79122;SDS011;68526;44.600;26.032;2023-04-28T00:40:48;10.75;;;8.05;;
79122;SDS011;68526;44.600;26.032;2023-04-28T00:41:04;11.13;;;8.02;;
79122;SDS011;68526;44.600;26.032;2023-04-28T00:41:21;12.32;;;8.10;;
79122;SDS011;68526;44.600;26.032;2023-04-28T00:41:37;11.80;;;7.87;;
79122;SDS011;68526;44.600;26.032;2023-04-28T00:41:53;11.05;;;7.82;;
79122;SDS011;68526;44.600;26.032;2023-04-28T00:42:09;11.30;;;8.02;;
79122;SDS011;68526;44.600;26.032;2023-04-28T00:42:25;10.73;;;7.72;;
79122;SDS011;68526;44.600;26.032;2023-04-28T00:42:40;10.13;;;7.47;;
79122;SDS011;68526;44.600;26.032;2023-04-28T00:42:57;9.50;;;7.50;;
79122;SDS011;68526;44.600;26.032;2023-04-28T00:43:13;9.55;;;7.70;;
79122;SDS011;68526;44.600;26.032;2023-04-28T00:43:29;10.38;;;7.82;;
79122;SDS011;68526;44.600;26.032;2023-04-28T00:43:45;11.00;;;8.00;;
79122;SDS011;68526;44.600;26.032;2023-04-28T00:44:02;10.93;;;8.13;;
79122;SDS011;68526;44.600;26.032;2023-04-28T00:44:17;10.55;;;8.00;;
79122;SDS011;68526;44.600;26.032;2023-04-28T00:44:35;10.88;;;7.78;;
79122;SDS011;68526;44.600;26.032;2023-04-28T00:44:50;9.57;;;7.80;;
79122;SDS011;68526;44.600;26.032;2023-04-28T00:45:07;10.60;;;8.10;;
79122;SDS011;68526;44.600;26.032;2023-04-28T00:45:23;12.50;;;8.25;;
79122;SDS011;68526;44.600;26.032;2023-04-28T00:45:40;11.10;;;7.88;;
79122;SDS011;68526;44.600;26.032;2023-04-28T00:45:56;9.35;;;7.57;;
79122;SDS011;68526;44.600;26.032;2023-04-28T00:46:12;10.00;;;7.80;;
79122;SDS011;68526;44.600;26.032;2023-04-28T00:46:35;9.70;;;7.68;;
79122;SDS011;68526;44.600;26.032;2023-04-28T00:46:51;10.85;;;7.70;;
79122;SDS011;68526;44.600;26.032;2023-04-28T00:47:07;10.68;;;7.65;;
79122;SDS011;68526;44.600;26.032;2023-04-28T00:47:24;9.27;;;7.55;;
79122;SDS011;68526;44.600;26.032;2023-04-28T00:47:41;12.15;;;7.65;;
79122;SDS011;68526;44.600;26.032;2023-04-28T00:47:57;12.13;;;7.95;;
79122;SDS011;68526;44.600;26.032;2023-04-28T00:48:14;9.75;;;7.63;;
79122;SDS011;68526;44.600;26.032;2023-04-28T00:48:30;10.38;;;7.30;;
79122;SDS011;68526;44.600;26.032;2023-04-28T00:48:46;10.43;;;7.10;;
79122;SDS011;68526;44.600;26.032;2023-04-28T00:49:02;10.40;;;7.68;;
79122;SDS011;68526;44.600;26.032;2023-04-28T00:49:20;10.98;;;8.07;;
79122;SDS011;68526;44.600;26.032;2023-04-28T00:49:36;11.65;;;7.70;;
79122;SDS011;68526;44.600;26.032;2023-04-28T00:49:52;9.85;;;7.57;;
79122;SDS011;68526;44.600;26.032;2023-04-28T00:50:09;10.00;;;7.72;;
79122;SDS011;68526;44.600;26.032;2023-04-28T00:50:25;11.93;;;7.93;;
79122;SDS011;68526;44.600;26.032;2023-04-28T00:50:41;12.03;;;7.77;;
79122;SDS011;68526;44.600;26.032;2023-04-28T00:50:58;11.15;;;7.70;;
79122;SDS011;68526;44.600;26.032;2023-04-28T00:51:14;9.80;;;7.10;;
79122;SDS011;68526;44.600;26.032;2023-04-28T00:51:31;9.60;;;7.10;;
79122;SDS011;68526;44.600;26.032;2023-04-28T00:51:47;9.55;;;7.18;;
79122;SDS011;68526;44.600;26.032;2023-04-28T00:52:04;10.07;;;7.43;;
79122;SDS011;68526;44.600;26.032;2023-04-28T00:52:21;10.85;;;7.20;;
79122;SDS011;68526;44.600;26.032;2023-04-28T00:52:37;9.90;;;7.10;;
79122;SDS011;68526;44.600;26.032;2023-04-28T00:52:54;8.82;;;7.20;;
79122;SDS011;68526;44.600;26.032;2023-04-28T00:53:10;10.17;;;7.47;;
79122;SDS011;68526;44.600;26.032;2023-04-28T00:53:26;9.90;;;7.40;;
79122;SDS011;68526;44.600;26.032;2023-04-28T00:53:42;8.88;;;7.03;;
79122;SDS011;68526;44.600;26.032;2023-04-28T00:53:58;9.88;;;6.88;;
79122;SDS011;68526;44.600;26.032;2023-04-28T00:54:15;11.38;;;7.50;;
79122;SDS011;68526;44.600;26.032;2023-04-28T00:54:31;12.57;;;7.90;;
79122;SDS011;68526;44.600;26.032;2023-04-28T00:54:47;10.43;;;7.13;;
79122;SDS011;68526;44.600;26.032;2023-04-28T00:55:03;8.73;;;6.90;;
79122;SDS011;68526;44.600;26.032;2023-04-28T00:55:20;10.15;;;7.38;;
79122;SDS011;68526;44.600;26.032;2023-04-28T00:55:36;9.82;;;7.35;;
79122;SDS011;68526;44.600;26.032;2023-04-28T00:55:53;9.75;;;7.40;;
79122;SDS011;68526;44.600;26.032;2023-04-28T00:56:11;11.45;;;7.40;;
79122;SDS011;68526;44.600;26.032;2023-04-28T00:56:27;10.63;;;7.20;;
79122;SDS011;68526;44.600;26.032;2023-04-28T00:56:45;9.48;;;7.20;;
79122;SDS011;68526;44.600;26.032;2023-04-28T00:57:02;10.68;;;7.40;;
79122;SDS011;68526;44.600;26.032;2023-04-28T00:57:18;10.00;;;6.88;;
79122;SDS011;68526;44.600;26.032;2023-04-28T00:57:35;8.88;;;6.63;;
79122;SDS011;68526;44.600;26.032;2023-04-28T00:57:51;9.65;;;7.35;;
79122;SDS011;68526;44.600;26.032;2023-04-28T00:58:09;10.43;;;7.65;;
79122;SDS011;68526;44.600;26.032;2023-04-28T00:58:25;11.10;;;7.78;;
79122;SDS011;68526;44.600;26.032;2023-04-28T00:58:42;10.88;;;7.35;;
79122;SDS011;68526;44.600;26.032;2023-04-28T00:58:58;9.73;;;6.93;;
79122;SDS011;68526;44.600;26.032;2023-04-28T00:59:14;9.13;;;6.90;;
79122;SDS011;68526;44.600;26.032;2023-04-28T00:59:30;11.13;;;7.13;;
79122;SDS011;68526;44.600;26.032;2023-04-28T00:59:46;10.77;;;7.40;;
79122;SDS011;68526;44.600;26.032;2023-04-28T01:00:02;8.80;;;7.00;;
79122;SDS011;68526;44.600;26.032;2023-04-28T01:00:19;10.60;;;7.18;;
79122;SDS011;68526;44.600;26.032;2023-04-28T01:00:34;11.03;;;7.50;;
79122;SDS011;68526;44.600;26.032;2023-04-28T01:00:51;10.00;;;7.43;;
79122;SDS011;68526;44.600;26.032;2023-04-28T01:01:08;8.82;;;7.03;;
79122;SDS011;68526;44.600;26.032;2023-04-28T01:01:24;9.40;;;7.00;;
79122;SDS011;68526;44.600;26.032;2023-04-28T01:01:40;10.20;;;7.28;;
79122;SDS011;68526;44.600;26.032;2023-04-28T01:01:56;10.30;;;7.23;;
79122;SDS011;68526;44.600;26.032;2023-04-28T01:02:14;9.85;;;7.43;;
79122;SDS011;68526;44.600;26.032;2023-04-28T01:02:32;11.43;;;7.82;;
79122;SDS011;68526;44.600;26.032;2023-04-28T01:02:48;12.30;;;7.30;;
79122;SDS011;68526;44.600;26.032;2023-04-28T01:03:05;9.23;;;6.60;;
79122;SDS011;68526;44.600;26.032;2023-04-28T01:03:21;8.68;;;6.65;;
79122;SDS011;68526;44.600;26.032;2023-04-28T01:03:38;11.02;;;6.90;;
79122;SDS011;68526;44.600;26.032;2023-04-28T01:03:56;10.93;;;7.13;;
79122;SDS011;68526;44.600;26.032;2023-04-28T01:04:12;9.60;;;7.03;;
79122;SDS011;68526;44.600;26.032;2023-04-28T01:04:28;9.40;;;7.00;;
79122;SDS011;68526;44.600;26.032;2023-04-28T01:04:44;9.13;;;6.95;;
79122;SDS011;68526;44.600;26.032;2023-04-28T01:05:01;8.75;;;6.85;;
79122;SDS011;68526;44.600;26.032;2023-04-28T01:05:19;10.05;;;7.07;;
79122;SDS011;68526;44.600;26.032;2023-04-28T01:05:36;10.82;;;7.03;;
79122;SDS011;68526;44.600;26.032;2023-04-28T01:05:52;9.48;;;7.35;;
79122;SDS011;68526;44.600;26.032;2023-04-28T01:06:08;9.10;;;7.23;;
79122;SDS011;68526;44.600;26.032;2023-04-28T01:06:24;11.52;;;7.20;;
79122;SDS011;68526;44.600;26.032;2023-04-28T01:06:42;10.05;;;7.20;;
79122;SDS011;68526;44.600;26.032;2023-04-28T01:07:00;9.40;;;6.93;;
79122;SDS011;68526;44.600;26.032;2023-04-28T01:07:17;9.25;;;6.75;;
79122;SDS011;68526;44.600;26.032;2023-04-28T01:07:33;9.02;;;7.00;;
79122;SDS011;68526;44.600;26.032;2023-04-28T01:07:49;9.30;;;7.10;;
79122;SDS011;68526;44.600;26.032;2023-04-28T01:08:04;9.55;;;7.10;;
79122;SDS011;68526;44.600;26.032;2023-04-28T01:08:22;10.00;;;7.18;;
79122;SDS011;68526;44.600;26.032;2023-04-28T01:08:38;10.77;;;7.38;;
79122;SDS011;68526;44.600;26.032;2023-04-28T01:08:54;10.45;;;7.45;;
79122;SDS011;68526;44.600;26.032;2023-04-28T01:09:10;10.80;;;7.55;;
79122;SDS011;68526;44.600;26.032;2023-04-28T01:09:26;9.85;;;7.45;;
79122;SDS011;68526;44.600;26.032;2023-04-28T01:09:43;9.93;;;7.47;;
79122;SDS011;68526;44.600;26.032;2023-04-28T01:09:59;10.15;;;7.28;;
79122;SDS011;68526;44.600;26.032;2023-04-28T01:10:15;9.18;;;7.32;;
79122;SDS011;68526;44.600;26.032;2023-04-28T01:10:31;9.13;;;7.50;;
79122;SDS011;68526;44.600;26.032;2023-04-28T01:10:47;10.82;;;7.50;;
79122;SDS011;68526;44.600;26.032;2023-04-28T01:11:03;10.70;;;7.57;;
79122;SDS011;68526;44.600;26.032;2023-04-28T01:11:19;10.27;;;7.60;;
79122;SDS011;68526;44.600;26.032;2023-04-28T01:11:35;10.52;;;7.47;;
79122;SDS011;68526;44.600;26.032;2023-04-28T01:11:51;9.32;;;7.20;;
79122;SDS011;68526;44.600;26.032;2023-04-28T01:12:07;9.48;;;7.22;;
79122;SDS011;68526;44.600;26.032;2023-04-28T01:12:23;8.90;;;7.30;;
79122;SDS011;68526;44.600;26.032;2023-04-28T01:12:39;10.77;;;7.25;;
79122;SDS011;68526;44.600;26.032;2023-04-28T01:12:56;12.63;;;7.05;;
79122;SDS011;68526;44.600;26.032;2023-04-28T01:13:11;10.45;;;6.95;;
79122;SDS011;68526;44.600;26.032;2023-04-28T01:13:27;9.73;;;7.30;;
79122;SDS011;68526;44.600;26.032;2023-04-28T01:13:43;10.15;;;7.63;;
79122;SDS011;68526;44.600;26.032;2023-04-28T01:13:59;10.82;;;7.70;;
79122;SDS011;68526;44.600;26.032;2023-04-28T01:14:15;11.35;;;7.78;;
79122;SDS011;68526;44.600;26.032;2023-04-28T01:14:32;11.27;;;7.68;;
79122;SDS011;68526;44.600;26.032;2023-04-28T01:14:48;10.23;;;7.20;;
79122;SDS011;68526;44.600;26.032;2023-04-28T01:15:05;9.07;;;7.40;;
79122;SDS011;68526;44.600;26.032;2023-04-28T01:15:26;8.65;;;7.22;;
79122;SDS011;68526;44.600;26.032;2023-04-28T01:15:42;8.55;;;6.95;;
79122;SDS011;68526;44.600;26.032;2023-04-28T01:15:58;8.43;;;7.22;;
79122;SDS011;68526;44.600;26.032;2023-04-28T01:16:15;9.05;;;7.65;;
79122;SDS011;68526;44.600;26.032;2023-04-28T01:16:32;9.07;;;7.50;;
79122;SDS011;68526;44.600;26.032;2023-04-28T01:16:48;9.52;;;7.00;;
79122;SDS011;68526;44.600;26.032;2023-04-28T01:17:04;11.18;;;7.45;;
79122;SDS011;68526;44.600;26.032;2023-04-28T01:17:20;10.23;;;7.43;;
79122;SDS011;68526;44.600;26.032;2023-04-28T01:17:36;9.35;;;7.00;;
79122;SDS011;68526;44.600;26.032;2023-04-28T01:17:53;9.00;;;7.30;;
79122;SDS011;68526;44.600;26.032;2023-04-28T01:18:10;8.63;;;7.32;;
79122;SDS011;68526;44.600;26.032;2023-04-28T01:18:25;8.83;;;7.53;;
79122;SDS011;68526;44.600;26.032;2023-04-28T01:18:42;8.65;;;7.47;;
79122;SDS011;68526;44.600;26.032;2023-04-28T01:19:01;9.77;;;7.47;;
79122;SDS011;68526;44.600;26.032;2023-04-28T01:19:19;11.52;;;7.95;;
79122;SDS011;68526;44.600;26.032;2023-04-28T01:19:37;12.07;;;7.88;;
79122;SDS011;68526;44.600;26.032;2023-04-28T01:19:53;11.75;;;7.25;;
79122;SDS011;68526;44.600;26.032;2023-04-28T01:20:09;9.85;;;7.10;;
79122;SDS011;68526;44.600;26.032;2023-04-28T01:20:27;10.50;;;7.47;;
79122;SDS011;68526;44.600;26.032;2023-04-28T01:20:42;11.18;;;7.60;;
79122;SDS011;68526;44.600;26.032;2023-04-28T01:20:58;11.27;;;7.30;;
79122;SDS011;68526;44.600;26.032;2023-04-28T01:21:24;9.88;;;7.35;;
79122;SDS011;68526;44.600;26.032;2023-04-28T01:21:42;9.50;;;7.90;;
79122;SDS011;68526;44.600;26.032;2023-04-28T01:21:57;9.80;;;7.40;;
79122;SDS011;68526;44.600;26.032;2023-04-28T01:22:13;9.75;;;6.88;;
79122;SDS011;68526;44.600;26.032;2023-04-28T01:22:30;9.18;;;7.22;;
79122;SDS011;68526;44.600;26.032;2023-04-28T01:22:47;9.55;;;7.70;;
79122;SDS011;68526;44.600;26.032;2023-04-28T01:23:03;9.52;;;7.38;;
79122;SDS011;68526;44.600;26.032;2023-04-28T01:23:19;10.02;;;7.65;;
79122;SDS011;68526;44.600;26.032;2023-04-28T01:23:35;11.10;;;7.50;;
79122;SDS011;68526;44.600;26.032;2023-04-28T01:23:52;10.63;;;7.20;;
79122;SDS011;68526;44.600;26.032;2023-04-28T01:24:08;8.95;;;7.20;;
79122;SDS011;68526;44.600;26.032;2023-04-28T01:24:24;9.80;;;7.23;;
79122;SDS011;68526;44.600;26.032;2023-04-28T01:24:40;10.32;;;7.10;;
79122;SDS011;68526;44.600;26.032;2023-04-28T01:24:56;9.13;;;6.95;;
79122;SDS011;68526;44.600;26.032;2023-04-28T01:25:14;9.15;;;7.00;;
79122;SDS011;68526;44.600;26.032;2023-04-28T01:25:30;9.27;;;7.28;;
79122;SDS011;68526;44.600;26.032;2023-04-28T01:25:45;8.60;;;7.15;;
79122;SDS011;68526;44.600;26.032;2023-04-28T01:26:01;8.95;;;6.80;;
79122;SDS011;68526;44.600;26.032;2023-04-28T01:26:18;10.38;;;7.10;;
79122;SDS011;68526;44.600;26.032;2023-04-28T01:26:34;10.80;;;7.38;;
79122;SDS011;68526;44.600;26.032;2023-04-28T01:26:50;10.47;;;7.40;;
79122;SDS011;68526;44.600;26.032;2023-04-28T01:27:06;11.07;;;7.25;;
79122;SDS011;68526;44.600;26.032;2023-04-28T01:27:22;11.43;;;7.20;;
79122;SDS011;68526;44.600;26.032;2023-04-28T01:27:39;10.63;;;6.88;;
79122;SDS011;68526;44.600;26.032;2023-04-28T01:27:55;10.20;;;6.90;;
79122;SDS011;68526;44.600;26.032;2023-04-28T01:28:10;10.25;;;7.32;;
79122;SDS011;68526;44.600;26.032;2023-04-28T01:28:26;10.38;;;7.30;;
79122;SDS011;68526;44.600;26.032;2023-04-28T01:28:42;11.77;;;7.25;;
79122;SDS011;68526;44.600;26.032;2023-04-28T01:28:58;11.38;;;7.57;;
79122;SDS011;68526;44.600;26.032;2023-04-28T01:29:15;9.32;;;7.40;;
79122;SDS011;68526;44.600;26.032;2023-04-28T01:29:31;9.95;;;7.32;;
79122;SDS011;68526;44.600;26.032;2023-04-28T01:29:47;12.57;;;7.83;;
79122;SDS011;68526;44.600;26.032;2023-04-28T01:30:03;12.70;;;7.57;;
79122;SDS011;68526;44.600;26.032;2023-04-28T01:30:19;9.13;;;6.90;;
79122;SDS011;68526;44.600;26.032;2023-04-28T01:30:36;8.07;;;7.20;;
79122;SDS011;68526;44.600;26.032;2023-04-28T01:30:52;8.82;;;7.35;;
79122;SDS011;68526;44.600;26.032;2023-04-28T01:31:09;9.68;;;7.55;;
79122;SDS011;68526;44.600;26.032;2023-04-28T01:31:25;11.70;;;8.18;;
79122;SDS011;68526;44.600;26.032;2023-04-28T01:31:41;10.85;;;7.78;;
79122;SDS011;68526;44.600;26.032;2023-04-28T01:31:57;10.00;;;7.35;;
79122;SDS011;68526;44.600;26.032;2023-04-28T01:32:13;9.13;;;7.10;;
79122;SDS011;68526;44.600;26.032;2023-04-28T01:32:29;10.30;;;6.85;;
79122;SDS011;68526;44.600;26.032;2023-04-28T01:32:45;10.90;;;6.88;;
79122;SDS011;68526;44.600;26.032;2023-04-28T01:33:01;9.82;;;7.00;;
79122;SDS011;68526;44.600;26.032;2023-04-28T01:33:17;10.00;;;7.15;;
79122;SDS011;68526;44.600;26.032;2023-04-28T01:33:33;11.43;;;7.30;;
79122;SDS011;68526;44.600;26.032;2023-04-28T01:33:49;12.10;;;7.23;;
79122;SDS011;68526;44.600;26.032;2023-04-28T01:34:05;9.50;;;6.80;;
79122;SDS011;68526;44.600;26.032;2023-04-28T01:34:21;8.98;;;7.00;;
79122;SDS011;68526;44.600;26.032;2023-04-28T01:34:37;9.88;;;7.38;;
79122;SDS011;68526;44.600;26.032;2023-04-28T01:34:53;10.55;;;7.43;;
79122;SDS011;68526;44.600;26.032;2023-04-28T01:35:09;10.20;;;7.37;;
79122;SDS011;68526;44.600;26.032;2023-04-28T01:35:25;12.55;;;7.78;;
79122;SDS011;68526;44.600;26.032;2023-04-28T01:35:41;11.00;;;7.47;;
79122;SDS011;68526;44.600;26.032;2023-04-28T01:35:57;9.82;;;7.25;;
79122;SDS011;68526;44.600;26.032;2023-04-28T01:36:13;11.87;;;7.30;;